Terminal Aerodrome Forecast
Issued by NWS

Home | Current Version | Previous Version | Text Only | Print | Product List | Glossary On
Versions: 1 2 3 4 5 6 7 8 9 10 11 12 13 14 15 16 17
000
FTAK31 PAJN 271100
TAFAPG
TAF
PAPG 271139Z 2712/2812 00000KT P6SM OVC030
     FM271700 06005KT P6SM BKN060
     FM280000 16005KT P6SM BKN050
      AMD LTD TO CLD VIS AND WIND TIL 271500=

USA.gov is the U.S. government's official web portal to all federal, state and local government web resources and services.